Time;durP1;ratioP1;P1;durP2;ratioP2;P2;SDS_P1;SDS_P2;PMS_P1;PMS_P2;Temp;Humidity;BMP_temperature;BMP_pressure;BME280_temperature;BME280_humidity;BME280_pressure;Samples;Min_cycle;Max_cycle;Signal;HPM_P1;HPM_P2
2022/01/12 00:00:28;;;;;;;20.25;12.10;;;;;;;;;;4995277;28;20724;-79
2022/01/12 00:02:55;;;;;;;19.30;11.80;;;;;;;;;;4978332;28;20200;-79
2022/01/12 00:05:23;;;;;;;17.42;12.10;;;;;;;;;;5004256;28;20196;-76
2022/01/12 00:07:51;;;;;;;20.17;12.00;;;;;;;;;;5010582;28;20222;-75
2022/01/12 00:10:18;;;;;;;17.52;11.27;;;;;;;;;;5011952;28;20257;-76
2022/01/12 00:12:46;;;;;;;20.10;12.40;;;;;;;;;;5012482;28;20200;-77
2022/01/12 00:15:14;;;;;;;17.20;12.13;;;;;;;;;;5012796;28;20745;-77
2022/01/12 00:17:43;;;;;;;15.80;10.25;;;;;;;;;;5027652;28;20221;-77
2022/01/12 00:20:11;;;;;;;14.82;10.85;;;;;;;;;;5004423;28;20211;-76
2022/01/12 00:22:40;;;;;;;17.40;11.35;;;;;;;;;;4994691;28;20564;-78
2022/01/12 00:25:24;;;;;;;18.60;11.35;;;;;;;;;;4994878;28;20209;-77
2022/01/12 00:33:16;;;;;;;16.27;10.40;;;;;;;;;;4990991;28;20689;-77
2022/01/12 00:35:44;;;;;;;18.10;11.90;;;;;;;;;;4992325;28;20232;-76
2022/01/12 00:38:12;;;;;;;19.10;12.45;;;;;;;;;;4975245;28;20230;-76
2022/01/12 00:40:40;;;;;;;20.98;12.35;;;;;;;;;;4992692;28;20212;-77
2022/01/12 00:43:07;;;;;;;15.57;10.60;;;;;;;;;;4976254;28;20204;-78
2022/01/12 00:45:37;;;;;;;18.98;12.48;;;;;;;;;;4976918;28;20204;-76
2022/01/12 00:48:05;;;;;;;17.60;11.27;;;;;;;;;;4977465;28;20227;-78
2022/01/12 00:50:33;;;;;;;18.83;11.25;;;;;;;;;;4987150;28;20700;-78
2022/01/12 00:53:00;;;;;;;16.30;11.77;;;;;;;;;;5009433;28;20199;-76
2022/01/12 00:55:27;;;;;;;19.05;12.85;;;;;;;;;;5011085;28;20196;-76
2022/01/12 00:57:55;;;;;;;18.08;11.05;;;;;;;;;;4991638;28;20250;-78
2022/01/12 01:00:23;;;;;;;16.58;11.05;;;;;;;;;;4992473;28;20212;-76
2022/01/12 01:02:50;;;;;;;19.42;11.43;;;;;;;;;;4992357;28;20209;-77
2022/01/12 01:05:20;;;;;;;16.50;11.32;;;;;;;;;;4992847;28;20197;-78
2022/01/12 01:07:49;;;;;;;17.38;11.40;;;;;;;;;;4993867;28;20251;-76
2022/01/12 01:10:24;;;;;;;14.75;10.25;;;;;;;;;;4993852;28;20295;-77
2022/01/12 01:12:51;;;;;;;14.95;10.38;;;;;;;;;;4988083;28;20191;-77
2022/01/12 01:15:27;;;;;;;15.85;11.23;;;;;;;;;;5008631;28;20658;-77
2022/01/12 01:25:59;;;;;;;16.73;11.35;;;;;;;;;;5010344;28;20248;-78
2022/01/12 01:28:26;;;;;;;15.20;11.15;;;;;;;;;;4995881;28;20212;-78
2022/01/12 01:30:53;;;;;;;18.02;11.63;;;;;;;;;;4993485;28;20200;-78
2022/01/12 01:33:26;;;;;;;20.17;12.82;;;;;;;;;;4993397;28;20204;-76
2022/01/12 01:35:56;;;;;;;19.45;12.13;;;;;;;;;;5007584;28;20720;-78
2022/01/12 01:38:24;;;;;;;18.40;10.68;;;;;;;;;;5009178;28;20211;-77
2022/01/12 01:40:52;;;;;;;15.43;10.65;;;;;;;;;;5010495;28;20652;-77
2022/01/12 01:43:26;;;;;;;15.50;11.20;;;;;;;;;;5010592;28;20203;-78
2022/01/12 01:53:58;;;;;;;18.83;11.48;;;;;;;;;;4992599;28;20195;-76
2022/01/12 01:56:26;;;;;;;16.40;10.77;;;;;;;;;;4999068;28;20704;-76
2022/01/12 01:58:53;;;;;;;18.17;11.30;;;;;;;;;;5008124;28;20229;-77
2022/01/12 02:01:21;;;;;;;18.55;12.32;;;;;;;;;;5009082;28;20206;-76
2022/01/12 02:03:48;;;;;;;17.75;11.02;;;;;;;;;;5010878;28;20296;-76
2022/01/12 02:06:16;;;;;;;19.40;11.80;;;;;;;;;;5010502;28;20295;-77
2022/01/12 02:08:45;;;;;;;16.98;11.00;;;;;;;;;;5010554;28;20675;-78
2022/01/12 02:11:13;;;;;;;14.85;10.68;;;;;;;;;;5010821;28;20208;-77
2022/01/12 02:13:41;;;;;;;14.75;10.35;;;;;;;;;;4992967;28;20563;-77
2022/01/12 02:16:08;;;;;;;13.68;8.98;;;;;;;;;;4992948;28;20663;-76
2022/01/12 02:19:03;;;;;;;15.25;10.20;;;;;;;;;;4993542;28;20701;-78
2022/01/12 02:40:21;;;;;;;15.18;10.18;;;;;;;;;;4976623;28;20260;-77
2022/01/12 02:42:58;;;;;;;14.77;10.02;;;;;;;;;;5005221;28;20200;-77
2022/01/12 02:50:56;;;;;;;17.88;10.52;;;;;;;;;;5009149;28;20199;-76
2022/01/12 02:56:06;;;;;;;13.98;10.05;;;;;;;;;;4994178;28;20200;-77
2022/01/12 02:58:33;;;;;;;18.05;10.40;;;;;;;;;;4975158;28;20232;-77
2022/01/12 03:01:18;;;;;;;18.25;11.65;;;;;;;;;;4992447;28;20582;-76
2022/01/12 03:03:47;;;;;;;14.95;10.95;;;;;;;;;;4995732;28;20204;-77
2022/01/12 03:06:18;;;;;;;17.25;12.20;;;;;;;;;;5007796;28;20196;-77
2022/01/12 03:08:46;;;;;;;16.77;11.32;;;;;;;;;;4991545;28;20753;-77
2022/01/12 03:11:15;;;;;;;19.00;10.90;;;;;;;;;;5009991;28;20200;-77
2022/01/12 03:13:42;;;;;;;15.18;10.63;;;;;;;;;;5012351;28;20199;-77
2022/01/12 03:16:14;;;;;;;17.90;10.85;;;;;;;;;;5013679;28;20203;-78
2022/01/12 03:18:41;;;;;;;19.50;11.90;;;;;;;;;;5011880;28;20226;-76
2022/01/12 03:21:09;;;;;;;16.70;11.25;;;;;;;;;;4996033;28;20204;-77
2022/01/12 03:23:36;;;;;;;14.32;9.32;;;;;;;;;;4995879;28;20223;-76
2022/01/12 03:26:05;;;;;;;17.25;10.38;;;;;;;;;;4997904;28;20207;-77
2022/01/12 03:28:32;;;;;;;20.10;10.50;;;;;;;;;;4993811;28;20665;-78
2022/01/12 03:31:07;;;;;;;14.85;9.38;;;;;;;;;;5011616;28;20208;-77
2022/01/12 03:33:50;;;;;;;15.57;9.88;;;;;;;;;;5013115;28;20214;-78
2022/01/12 03:39:00;;;;;;;14.73;10.43;;;;;;;;;;5012395;28;20216;-78
2022/01/12 03:41:30;;;;;;;12.93;9.05;;;;;;;;;;5008535;28;20292;-78
2022/01/12 03:43:58;;;;;;;16.50;10.00;;;;;;;;;;4995909;28;20197;-77
2022/01/12 03:46:26;;;;;;;14.70;11.00;;;;;;;;;;4977989;28;20702;-77
2022/01/12 03:48:54;;;;;;;17.70;9.93;;;;;;;;;;5000241;28;20232;-76
2022/01/12 03:51:21;;;;;;;23.02;12.00;;;;;;;;;;5010830;28;20211;-77
2022/01/12 03:53:48;;;;;;;15.38;9.82;;;;;;;;;;5011447;28;20665;-77
2022/01/12 03:56:15;;;;;;;14.88;10.57;;;;;;;;;;5012888;28;20204;-78
2022/01/12 03:58:44;;;;;;;12.95;9.48;;;;;;;;;;5012530;28;20235;-77
2022/01/12 04:01:11;;;;;;;16.08;9.38;;;;;;;;;;4995670;28;20547;-77
2022/01/12 04:03:42;;;;;;;12.40;9.20;;;;;;;;;;5010034;28;20212;-76
2022/01/12 04:08:50;;;;;;;13.70;9.70;;;;;;;;;;4994152;28;20522;-77
2022/01/12 04:11:17;;;;;;;15.95;10.57;;;;;;;;;;4999887;28;20208;-76
2022/01/12 04:13:48;;;;;;;13.02;8.82;;;;;;;;;;4992962;28;20568;-78
2022/01/12 04:16:15;;;;;;;16.60;10.25;;;;;;;;;;5010755;28;20259;-77
2022/01/12 04:18:43;;;;;;;14.25;9.48;;;;;;;;;;5012744;28;20206;-78
2022/01/12 04:21:12;;;;;;;14.43;10.70;;;;;;;;;;5012724;28;20208;-78
2022/01/12 04:23:40;;;;;;;15.73;11.00;;;;;;;;;;5012278;28;20200;-76
2022/01/12 04:26:10;;;;;;;15.68;9.48;;;;;;;;;;5010238;28;20196;-77
2022/01/12 04:28:38;;;;;;;16.23;10.57;;;;;;;;;;4977674;28;20275;-77
2022/01/12 04:31:06;;;;;;;17.08;10.77;;;;;;;;;;4977609;28;20292;-77
2022/01/12 04:33:34;;;;;;;15.35;10.60;;;;;;;;;;4998608;28;20271;-77
2022/01/12 04:36:01;;;;;;;14.30;10.05;;;;;;;;;;5009704;28;20200;-77
2022/01/12 04:38:30;;;;;;;16.10;9.88;;;;;;;;;;5010393;28;20203;-77
2022/01/12 04:40:57;;;;;;;15.80;10.70;;;;;;;;;;5011836;28;20220;-77
2022/01/12 04:43:26;;;;;;;18.15;12.52;;;;;;;;;;5012043;28;20218;-76
2022/01/12 04:48:49;;;;;;;18.77;10.65;;;;;;;;;;5007641;28;20197;-76
2022/01/12 04:51:16;;;;;;;13.05;10.10;;;;;;;;;;4978871;28;20201;-78
2022/01/12 04:53:43;;;;;;;14.27;10.10;;;;;;;;;;4994410;28;20207;-76
2022/01/12 04:56:10;;;;;;;14.50;10.07;;;;;;;;;;4999933;28;20204;-76
2022/01/12 04:58:38;;;;;;;16.20;10.13;;;;;;;;;;5009254;28;20605;-77
2022/01/12 05:01:09;;;;;;;17.23;11.57;;;;;;;;;;5010268;28;20585;-78
2022/01/12 05:06:36;;;;;;;13.80;10.13;;;;;;;;;;5010639;28;20230;-76
2022/01/12 05:09:12;;;;;;;10.10;9.05;;;;;;;;;;5012028;28;20196;-77
2022/01/12 05:14:23;;;;;;;13.85;8.85;;;;;;;;;;4977900;28;20192;-78
2022/01/12 05:16:50;;;;;;;17.13;9.82;;;;;;;;;;4977243;28;20224;-78
2022/01/12 05:19:18;;;;;;;14.77;10.18;;;;;;;;;;5003763;28;20223;-78
2022/01/12 05:21:45;;;;;;;14.80;9.70;;;;;;;;;;5009246;28;20242;-78
2022/01/12 05:24:13;;;;;;;14.38;9.90;;;;;;;;;;5010484;28;20247;-77
2022/01/12 05:26:40;;;;;;;17.10;10.98;;;;;;;;;;5011572;28;20557;-77
2022/01/12 05:29:07;;;;;;;13.43;9.38;;;;;;;;;;5011365;28;20295;-78
2022/01/12 05:31:34;;;;;;;10.52;8.70;;;;;;;;;;5011659;28;20571;-80
2022/01/12 05:34:02;;;;;;;13.60;9.63;;;;;;;;;;5004200;28;20309;-78
2022/01/12 05:36:32;;;;;;;15.30;9.93;;;;;;;;;;4993136;28;20229;-77
2022/01/12 05:38:59;;;;;;;13.32;10.07;;;;;;;;;;4993314;28;20196;-77
2022/01/12 05:41:27;;;;;;;12.95;9.80;;;;;;;;;;5000949;28;20196;-77
2022/01/12 05:43:54;;;;;;;13.90;10.15;;;;;;;;;;4992468;28;20200;-76
2022/01/12 05:46:25;;;;;;;16.23;10.50;;;;;;;;;;5001314;28;20283;-76
2022/01/12 05:51:35;;;;;;;17.15;10.27;;;;;;;;;;4975174;28;20189;-78
2022/01/12 05:54:03;;;;;;;18.77;9.77;;;;;;;;;;4991712;28;20219;-79
2022/01/12 05:56:30;;;;;;;16.60;9.43;;;;;;;;;;4992182;28;20216;-77
2022/01/12 05:58:57;;;;;;;13.95;9.70;;;;;;;;;;4993058;28;20248;-77
2022/01/12 06:01:24;;;;;;;11.57;8.80;;;;;;;;;;4993046;28;20228;-78
2022/01/12 06:03:51;;;;;;;12.02;9.20;;;;;;;;;;5000743;28;20223;-77
2022/01/12 06:06:18;;;;;;;11.93;9.07;;;;;;;;;;5008096;28;20231;-77
2022/01/12 06:08:47;;;;;;;15.95;9.50;;;;;;;;;;5009690;28;20204;-77
2022/01/12 06:11:14;;;;;;;12.68;8.70;;;;;;;;;;5010465;28;20218;-77
2022/01/12 06:13:42;;;;;;;11.95;8.70;;;;;;;;;;5010856;28;20802;-76
2022/01/12 06:16:09;;;;;;;15.63;9.98;;;;;;;;;;5010722;28;20204;-76
2022/01/12 06:18:36;;;;;;;16.65;10.20;;;;;;;;;;5004688;28;20201;-77
2022/01/12 06:21:03;;;;;;;12.98;9.60;;;;;;;;;;4992712;28;20224;-76
2022/01/12 06:23:30;;;;;;;13.57;8.15;;;;;;;;;;4993044;28;20204;-77
2022/01/12 06:25:59;;;;;;;14.48;9.88;;;;;;;;;;4998598;28;20196;-77
2022/01/12 06:31:11;;;;;;;15.27;9.68;;;;;;;;;;4994345;28;20275;-77
2022/01/12 06:33:38;;;;;;;14.05;9.77;;;;;;;;;;4993187;28;20211;-77
2022/01/12 06:36:06;;;;;;;13.35;9.93;;;;;;;;;;5010310;28;20204;-76
2022/01/12 06:38:33;;;;;;;18.90;8.80;;;;;;;;;;4993516;28;20211;-78
2022/01/12 06:41:02;;;;;;;14.70;9.77;;;;;;;;;;5004684;28;20224;-76
2022/01/12 06:43:29;;;;;;;14.00;9.20;;;;;;;;;;4992791;28;20200;-79
2022/01/12 06:45:56;;;;;;;15.70;9.68;;;;;;;;;;5000212;28;20203;-77
2022/01/12 06:48:24;;;;;;;16.40;10.05;;;;;;;;;;5012610;28;20200;-77
2022/01/12 06:50:51;;;;;;;15.75;10.40;;;;;;;;;;5011974;28;20571;-78
2022/01/12 06:53:18;;;;;;;17.98;10.75;;;;;;;;;;5012986;28;20200;-75
2022/01/12 06:55:45;;;;;;;17.52;9.60;;;;;;;;;;5013966;28;20364;-77
2022/01/12 06:58:14;;;;;;;15.85;9.38;;;;;;;;;;5013932;28;20321;-78
2022/01/12 07:00:41;;;;;;;15.18;9.80;;;;;;;;;;4996440;28;20231;-77
2022/01/12 07:03:08;;;;;;;17.10;11.95;;;;;;;;;;5010999;28;20578;-76
2022/01/12 07:05:35;;;;;;;15.82;10.82;;;;;;;;;;4997689;28;20212;-77
2022/01/12 07:08:02;;;;;;;16.90;10.85;;;;;;;;;;4996173;28;20221;-77
2022/01/12 07:10:30;;;;;;;17.05;11.32;;;;;;;;;;5005436;28;20203;-79
2022/01/12 07:12:57;;;;;;;16.33;9.55;;;;;;;;;;5011319;28;20192;-76
2022/01/12 07:15:25;;;;;;;15.63;9.90;;;;;;;;;;5012670;28;20685;-76
2022/01/12 07:17:53;;;;;;;14.50;10.07;;;;;;;;;;5013413;28;20242;-76
2022/01/12 07:20:20;;;;;;;15.38;9.82;;;;;;;;;;5013248;28;20211;-77
2022/01/12 07:22:47;;;;;;;16.42;11.07;;;;;;;;;;5013167;28;20200;-74
2022/01/12 07:25:14;;;;;;;14.20;10.23;;;;;;;;;;5013050;28;20202;-77
2022/01/12 07:27:42;;;;;;;16.13;10.18;;;;;;;;;;5015264;28;20697;-74
2022/01/12 07:30:10;;;;;;;16.30;11.32;;;;;;;;;;4998151;28;20200;-76
2022/01/12 07:32:38;;;;;;;18.65;10.98;;;;;;;;;;5012086;28;20204;-76
2022/01/12 07:35:06;;;;;;;17.60;11.45;;;;;;;;;;5018176;28;20649;-76
2022/01/12 07:37:33;;;;;;;16.08;10.52;;;;;;;;;;5016753;28;20223;-75
2022/01/12 07:40:00;;;;;;;14.65;9.82;;;;;;;;;;5012528;28;20302;-76
2022/01/12 07:42:28;;;;;;;17.83;10.60;;;;;;;;;;5013424;28;20200;-75
2022/01/12 07:44:59;;;;;;;15.52;11.10;;;;;;;;;;5010935;28;20555;-76
2022/01/12 07:47:26;;;;;;;12.25;9.20;;;;;;;;;;5012449;28;20275;-76
2022/01/12 07:49:54;;;;;;;14.55;10.73;;;;;;;;;;5014507;28;20575;-77
2022/01/12 07:52:21;;;;;;;20.50;12.45;;;;;;;;;;5014735;28;20203;-77
2022/01/12 07:54:49;;;;;;;16.85;10.35;;;;;;;;;;5013295;28;20287;-76
2022/01/12 07:57:16;;;;;;;15.75;11.75;;;;;;;;;;5010162;28;20674;-76
2022/01/12 07:59:43;;;;;;;14.32;9.93;;;;;;;;;;5009979;28;20214;-75
2022/01/12 08:02:11;;;;;;;14.88;9.18;;;;;;;;;;5012372;28;20196;-79
2022/01/12 08:04:39;;;;;;;14.18;9.50;;;;;;;;;;4991311;28;20205;-79
2022/01/12 08:07:10;;;;;;;14.88;10.00;;;;;;;;;;5006609;28;20223;-79
2022/01/12 08:09:37;;;;;;;14.95;9.68;;;;;;;;;;5006401;28;20211;-78
2022/01/12 08:12:04;;;;;;;14.73;9.68;;;;;;;;;;5012919;28;20198;-79
2022/01/12 08:14:32;;;;;;;11.50;9.30;;;;;;;;;;5010206;28;20208;-78
2022/01/12 08:16:59;;;;;;;15.50;10.10;;;;;;;;;;5007659;28;20596;-77
2022/01/12 08:19:29;;;;;;;14.70;9.23;;;;;;;;;;4992824;28;20204;-77
2022/01/12 08:21:57;;;;;;;13.40;9.77;;;;;;;;;;4975424;28;20278;-76
2022/01/12 08:24:25;;;;;;;14.98;9.55;;;;;;;;;;4993429;28;20209;-76
2022/01/12 08:26:52;;;;;;;15.48;10.70;;;;;;;;;;4995897;28;20224;-76
2022/01/12 08:29:19;;;;;;;12.95;8.77;;;;;;;;;;5014706;28;20457;-78
2022/01/12 08:31:47;;;;;;;12.85;9.43;;;;;;;;;;5014320;28;20202;-74
2022/01/12 08:34:15;;;;;;;11.90;8.40;;;;;;;;;;4986987;28;20227;-76
2022/01/12 08:36:42;;;;;;;14.80;9.57;;;;;;;;;;5009942;28;20295;-77
2022/01/12 08:39:10;;;;;;;15.73;9.75;;;;;;;;;;5010422;28;20192;-76
2022/01/12 08:41:39;;;;;;;12.75;9.48;;;;;;;;;;5012183;28;20219;-78
2022/01/12 08:44:08;;;;;;;14.32;9.57;;;;;;;;;;5011527;28;20215;-75
2022/01/12 08:46:36;;;;;;;12.80;9.18;;;;;;;;;;5011395;28;20220;-76
2022/01/12 08:49:03;;;;;;;12.85;9.52;;;;;;;;;;5011711;28;20188;-75
2022/01/12 08:51:30;;;;;;;15.02;10.30;;;;;;;;;;4992235;28;20205;-78
2022/01/12 08:53:57;;;;;;;15.77;10.45;;;;;;;;;;5012475;28;20263;-76
2022/01/12 08:56:24;;;;;;;13.48;9.38;;;;;;;;;;5013894;28;20235;-74
2022/01/12 08:58:53;;;;;;;15.32;9.88;;;;;;;;;;5009538;28;20585;-77
2022/01/12 09:01:20;;;;;;;16.15;9.90;;;;;;;;;;5009555;28;20220;-74
2022/01/12 09:03:48;;;;;;;15.13;9.52;;;;;;;;;;5010545;28;20669;-75
2022/01/12 09:06:15;;;;;;;14.88;9.50;;;;;;;;;;5001515;28;20203;-77
2022/01/12 09:08:44;;;;;;;14.00;8.90;;;;;;;;;;4992452;28;20205;-75
2022/01/12 09:11:12;;;;;;;14.25;9.13;;;;;;;;;;4991307;28;20245;-76
2022/01/12 09:13:40;;;;;;;16.98;11.30;;;;;;;;;;5008934;28;20200;-75
2022/01/12 09:16:10;;;;;;;16.27;10.35;;;;;;;;;;5013418;28;20657;-76
2022/01/12 09:18:38;;;;;;;15.65;10.10;;;;;;;;;;5013540;28;20735;-78
2022/01/12 09:21:06;;;;;;;13.40;9.63;;;;;;;;;;5009775;28;20242;-77
2022/01/12 09:23:33;;;;;;;14.00;9.60;;;;;;;;;;5008174;28;20200;-75
2022/01/12 09:26:01;;;;;;;15.85;9.95;;;;;;;;;;5010339;28;20215;-77
2022/01/12 09:28:29;;;;;;;15.18;9.77;;;;;;;;;;5010898;28;20224;-76
2022/01/12 09:30:56;;;;;;;13.88;9.30;;;;;;;;;;5010747;28;20668;-75
2022/01/12 09:33:25;;;;;;;14.30;8.77;;;;;;;;;;5007579;28;20196;-75
2022/01/12 09:35:53;;;;;;;13.65;9.07;;;;;;;;;;4998116;28;20204;-74
2022/01/12 09:38:22;;;;;;;13.13;8.88;;;;;;;;;;5012695;28;20226;-76
2022/01/12 09:40:57;;;;;;;13.77;9.40;;;;;;;;;;5002766;28;20213;-75
2022/01/12 09:43:26;;;;;;;11.10;8.73;;;;;;;;;;4994181;28;20200;-74
2022/01/12 09:45:54;;;;;;;15.25;10.00;;;;;;;;;;4994136;28;20706;-74
2022/01/12 09:48:21;;;;;;;13.80;9.02;;;;;;;;;;4979618;28;20222;-75
2022/01/12 09:50:50;;;;;;;17.95;9.75;;;;;;;;;;5008425;28;20200;-73
2022/01/12 09:53:23;;;;;;;11.90;8.27;;;;;;;;;;5012352;28;20196;-75
2022/01/12 09:55:53;;;;;;;13.50;9.70;;;;;;;;;;5013671;28;20537;-74
2022/01/12 09:58:21;;;;;;;12.18;9.60;;;;;;;;;;5013513;28;20231;-75
2022/01/12 10:00:57;;;;;;;15.13;10.27;;;;;;;;;;5009919;28;20212;-75
2022/01/12 10:03:25;;;;;;;17.50;10.63;;;;;;;;;;4993492;28;20210;-75
2022/01/12 10:05:54;;;;;;;15.50;9.40;;;;;;;;;;5026700;28;20665;-76
2022/01/12 10:08:22;;;;;;;16.38;10.27;;;;;;;;;;5028490;28;20619;-76
2022/01/12 10:11:03;;;;;;;12.18;9.48;;;;;;;;;;5027673;28;20622;-76
2022/01/12 10:13:30;;;;;;;14.93;10.35;;;;;;;;;;5025373;28;20625;-76
2022/01/12 10:15:57;;;;;;;13.30;9.27;;;;;;;;;;5012664;28;20200;-76
2022/01/12 10:18:24;;;;;;;13.80;9.85;;;;;;;;;;5012262;28;20284;-77
2022/01/12 10:20:53;;;;;;;13.93;9.50;;;;;;;;;;5012124;28;20223;-77
2022/01/12 10:23:23;;;;;;;14.93;10.00;;;;;;;;;;5012333;28;20203;-75
2022/01/12 10:25:50;;;;;;;14.73;9.85;;;;;;;;;;5012371;28;20198;-75
2022/01/12 10:28:18;;;;;;;16.88;9.80;;;;;;;;;;5013780;28;20224;-76
2022/01/12 10:30:58;;;;;;;14.27;10.40;;;;;;;;;;4994867;28;20207;-78
2022/01/12 10:33:26;;;;;;;14.85;10.30;;;;;;;;;;4995733;28;20258;-75
2022/01/12 10:35:57;;;;;;;13.77;9.85;;;;;;;;;;5014873;28;20236;-75
2022/01/12 10:38:24;;;;;;;16.65;9.30;;;;;;;;;;5016412;28;20203;-76
2022/01/12 10:40:52;;;;;;;11.77;8.40;;;;;;;;;;5016283;28;20216;-76
2022/01/12 10:43:34;;;;;;;15.27;11.10;;;;;;;;;;5016291;28;20562;-76
2022/01/12 10:46:02;;;;;;;12.52;10.23;;;;;;;;;;4996815;28;20198;-76
2022/01/12 10:48:45;;;;;;;16.83;9.20;;;;;;;;;;5012389;28;20199;-77
2022/01/12 10:51:15;;;;;;;15.88;10.18;;;;;;;;;;4998959;28;20796;-77
2022/01/12 10:53:43;;;;;;;14.15;8.77;;;;;;;;;;5013667;28;20199;-76
2022/01/12 10:56:11;;;;;;;17.17;9.30;;;;;;;;;;4993143;28;20256;-75
2022/01/12 10:58:40;;;;;;;12.80;9.52;;;;;;;;;;5009182;28;20704;-76
2022/01/12 11:01:07;;;;;;;17.52;10.52;;;;;;;;;;5014791;28;20315;-77
2022/01/12 11:03:34;;;;;;;12.60;8.70;;;;;;;;;;5014430;28;20200;-76
2022/01/12 11:06:02;;;;;;;14.10;9.48;;;;;;;;;;5010471;28;20196;-76
2022/01/12 11:08:31;;;;;;;13.52;9.77;;;;;;;;;;5008260;28;20685;-76
2022/01/12 11:10:59;;;;;;;19.80;9.18;;;;;;;;;;5011345;28;20204;-75
2022/01/12 11:13:26;;;;;;;13.27;9.38;;;;;;;;;;5011413;28;20554;-76
2022/01/12 11:15:54;;;;;;;13.52;9.55;;;;;;;;;;5011585;28;20196;-77
2022/01/12 11:18:23;;;;;;;16.88;10.10;;;;;;;;;;4995696;28;20220;-76
2022/01/12 11:20:53;;;;;;;16.13;9.35;;;;;;;;;;5011913;28;20208;-76
2022/01/12 11:23:21;;;;;;;15.48;9.43;;;;;;;;;;5011303;28;20199;-78
2022/01/12 11:25:50;;;;;;;21.55;11.45;;;;;;;;;;5012134;28;20907;-77
2022/01/12 11:28:18;;;;;;;14.52;8.82;;;;;;;;;;5012816;28;20226;-77
2022/01/12 11:30:47;;;;;;;13.90;9.77;;;;;;;;;;5011841;28;20207;-75
2022/01/12 11:33:15;;;;;;;12.57;9.07;;;;;;;;;;5013116;28;20681;-76
2022/01/12 11:35:43;;;;;;;16.73;9.23;;;;;;;;;;4995383;28;20208;-75
2022/01/12 11:38:20;;;;;;;15.27;9.05;;;;;;;;;;5015276;28;20227;-75
2022/01/12 11:40:50;;;;;;;21.80;11.98;;;;;;;;;;4997705;28;20265;-75
2022/01/12 11:43:19;;;;;;;19.70;11.15;;;;;;;;;;5013544;28;20571;-76
2022/01/12 11:45:47;;;;;;;20.58;12.15;;;;;;;;;;5010464;28;20203;-76
2022/01/12 11:48:14;;;;;;;23.13;11.85;;;;;;;;;;5011586;28;20227;-74
2022/01/12 11:50:41;;;;;;;19.33;10.90;;;;;;;;;;5012714;28;20203;-75
2022/01/12 11:53:08;;;;;;;27.63;12.35;;;;;;;;;;5012971;28;20236;-75
2022/01/12 11:55:40;;;;;;;22.15;11.30;;;;;;;;;;5013056;28;20547;-77
2022/01/12 11:58:16;;;;;;;24.20;12.32;;;;;;;;;;5013029;28;20314;-76
2022/01/12 12:00:45;;;;;;;16.75;10.73;;;;;;;;;;5014418;28;20202;-76
2022/01/12 12:03:17;;;;;;;24.23;13.70;;;;;;;;;;5006151;28;20216;-75
2022/01/12 12:05:45;;;;;;;19.55;11.50;;;;;;;;;;4991714;28;20204;-76
2022/01/12 12:08:12;;;;;;;33.72;14.20;;;;;;;;;;5020103;28;20293;-74
2022/01/12 12:10:41;;;;;;;24.10;12.35;;;;;;;;;;5012457;28;20290;-76
2022/01/12 12:13:11;;;;;;;31.80;14.57;;;;;;;;;;5012327;28;20196;-77
2022/01/12 12:15:38;;;;;;;28.05;13.38;;;;;;;;;;4996102;28;20200;-76
2022/01/12 12:18:07;;;;;;;35.30;15.70;;;;;;;;;;5005688;28;20221;-77
2022/01/12 12:20:36;;;;;;;26.15;14.07;;;;;;;;;;5002822;28;20292;-76
2022/01/12 12:23:04;;;;;;;35.33;14.93;;;;;;;;;;5014242;28;20212;-76
2022/01/12 12:25:32;;;;;;;31.58;15.00;;;;;;;;;;5012927;28;20196;-75
2022/01/12 12:28:00;;;;;;;37.63;16.20;;;;;;;;;;5009944;28;20215;-76
2022/01/12 12:30:28;;;;;;;29.30;14.50;;;;;;;;;;4993563;28;20222;-75
2022/01/12 12:32:56;;;;;;;30.88;14.45;;;;;;;;;;5012430;28;20191;-76
2022/01/12 12:35:25;;;;;;;26.75;14.00;;;;;;;;;;4994895;28;20203;-77
2022/01/12 12:37:54;;;;;;;28.20;15.55;;;;;;;;;;5012505;28;20223;-76
2022/01/12 12:40:24;;;;;;;29.45;16.10;;;;;;;;;;4990500;28;20212;-76
2022/01/12 12:42:52;;;;;;;38.10;19.42;;;;;;;;;;4994476;28;20587;-77
2022/01/12 12:45:19;;;;;;;36.05;18.02;;;;;;;;;;4993504;28;20207;-76
2022/01/12 12:47:49;;;;;;;34.80;18.33;;;;;;;;;;4996943;28;20224;-76
2022/01/12 12:50:16;;;;;;;39.33;19.75;;;;;;;;;;5009582;28;20189;-76
2022/01/12 12:52:46;;;;;;;36.53;20.38;;;;;;;;;;5010259;28;20239;-77
2022/01/12 12:55:14;;;;;;;44.50;24.45;;;;;;;;;;5011844;28;20204;-76
2022/01/12 12:57:49;;;;;;;45.78;22.02;;;;;;;;;;5011355;28;20228;-77
2022/01/12 13:00:19;;;;;;;40.85;22.60;;;;;;;;;;5011926;28;20199;-77
2022/01/12 13:02:47;;;;;;;48.25;23.35;;;;;;;;;;5008850;28;20761;-76
2022/01/12 13:05:15;;;;;;;38.88;22.13;;;;;;;;;;4994027;28;20243;-75
2022/01/12 13:07:45;;;;;;;66.85;25.38;;;;;;;;;;4994100;28;20217;-77
2022/01/12 13:10:15;;;;;;;63.03;26.33;;;;;;;;;;4995585;28;20208;-78
2022/01/12 13:12:43;;;;;;;53.05;26.40;;;;;;;;;;5009251;28;20196;-76
2022/01/12 13:15:13;;;;;;;64.93;23.40;;;;;;;;;;5009531;28;20196;-77
2022/01/12 13:17:41;;;;;;;48.53;22.50;;;;;;;;;;4994396;28;20697;-76
2022/01/12 13:22:53;;;;;;;35.65;17.45;;;;;;;;;;4995291;28;20223;-75
2022/01/12 13:25:21;;;;;;;43.45;17.65;;;;;;;;;;5009188;28;20196;-76
2022/01/12 13:27:50;;;;;;;44.67;18.40;;;;;;;;;;4993606;28;20312;-75
2022/01/12 13:30:23;;;;;;;34.10;16.95;;;;;;;;;;4993879;28;20204;-76
2022/01/12 13:32:53;;;;;;;40.33;16.58;;;;;;;;;;4995709;28;20199;-77
2022/01/12 13:35:26;;;;;;;39.80;17.13;;;;;;;;;;4991530;28;20250;-77
2022/01/12 13:37:56;;;;;;;34.53;15.95;;;;;;;;;;5009365;28;20216;-77
2022/01/12 13:40:23;;;;;;;29.83;16.05;;;;;;;;;;5011096;28;20219;-76
2022/01/12 13:42:51;;;;;;;33.83;16.48;;;;;;;;;;5010702;28;20219;-77
2022/01/12 13:45:23;;;;;;;37.00;17.25;;;;;;;;;;5011515;28;20200;-76
2022/01/12 13:47:57;;;;;;;33.03;16.17;;;;;;;;;;5023890;28;20224;-77
2022/01/12 13:50:30;;;;;;;28.48;17.73;;;;;;;;;;5001824;28;20239;-77
2022/01/12 13:52:59;;;;;;;35.80;17.00;;;;;;;;;;5011180;28;20226;-77
2022/01/12 13:55:28;;;;;;;36.47;17.83;;;;;;;;;;4992344;28;20540;-77
2022/01/12 13:57:59;;;;;;;39.00;16.60;;;;;;;;;;5006294;28;20231;-77
2022/01/12 14:00:26;;;;;;;39.30;19.33;;;;;;;;;;5007909;28;20292;-76
2022/01/12 14:02:53;;;;;;;46.65;20.48;;;;;;;;;;5010317;28;20238;-75
2022/01/12 14:05:21;;;;;;;44.95;19.25;;;;;;;;;;5009120;28;20291;-76
2022/01/12 14:07:59;;;;;;;39.50;18.25;;;;;;;;;;5010633;28;20219;-76
2022/01/12 14:10:29;;;;;;;45.40;19.67;;;;;;;;;;5010715;28;20410;-76
2022/01/12 14:12:56;;;;;;;46.53;20.33;;;;;;;;;;5012918;28;20537;-76
2022/01/12 14:15:25;;;;;;;36.13;17.30;;;;;;;;;;5012515;28;20208;-78
2022/01/12 14:17:52;;;;;;;41.03;17.30;;;;;;;;;;5011938;28;20222;-77
2022/01/12 14:20:23;;;;;;;42.78;17.17;;;;;;;;;;5008415;28;20200;-76
2022/01/12 14:22:51;;;;;;;40.80;17.75;;;;;;;;;;5008574;28;20377;-78
2022/01/12 14:25:19;;;;;;;43.17;18.88;;;;;;;;;;5009699;28;20314;-76
2022/01/12 14:27:48;;;;;;;39.75;17.48;;;;;;;;;;5010295;28;20223;-76
2022/01/12 14:30:17;;;;;;;37.88;18.52;;;;;;;;;;4993336;28;20204;-75
2022/01/12 14:32:44;;;;;;;43.83;20.58;;;;;;;;;;5010778;28;20693;-76
2022/01/12 14:35:12;;;;;;;42.35;19.80;;;;;;;;;;4991120;28;20226;-76
2022/01/12 14:37:40;;;;;;;36.05;19.17;;;;;;;;;;4975907;28;20240;-76
2022/01/12 14:40:09;;;;;;;50.92;20.77;;;;;;;;;;4993030;28;20204;-76
2022/01/12 14:42:44;;;;;;;41.05;18.33;;;;;;;;;;5005798;28;20255;-76
2022/01/12 14:45:14;;;;;;;47.53;19.17;;;;;;;;;;5008978;28;20207;-76
2022/01/12 14:47:41;;;;;;;37.55;18.95;;;;;;;;;;5009883;28;20760;-76
2022/01/12 14:50:09;;;;;;;42.97;21.08;;;;;;;;;;5010605;28;20203;-76
2022/01/12 14:52:37;;;;;;;45.75;19.38;;;;;;;;;;4993171;28;20196;-76
2022/01/12 14:55:04;;;;;;;41.67;18.92;;;;;;;;;;5010365;28;20204;-76
2022/01/12 14:57:31;;;;;;;38.88;19.00;;;;;;;;;;4994147;28;20685;-76
2022/01/12 15:00:00;;;;;;;43.35;19.38;;;;;;;;;;5012226;28;20733;-76
2022/01/12 15:02:28;;;;;;;48.95;19.48;;;;;;;;;;5012797;28;20216;-76
2022/01/12 15:04:56;;;;;;;46.72;18.85;;;;;;;;;;5008656;28;20827;-76
2022/01/12 15:07:23;;;;;;;29.73;16.17;;;;;;;;;;5008113;28;20223;-75
2022/01/12 15:09:50;;;;;;;42.25;18.25;;;;;;;;;;5012587;28;20466;-76
2022/01/12 15:12:27;;;;;;;50.10;18.27;;;;;;;;;;5013600;28;20196;-76
2022/01/12 15:14:59;;;;;;;55.33;19.90;;;;;;;;;;5014081;28;20204;-76
2022/01/12 15:17:28;;;;;;;42.47;19.63;;;;;;;;;;5014107;28;20223;-76
2022/01/12 15:19:56;;;;;;;43.17;20.15;;;;;;;;;;5015075;28;20676;-76
2022/01/12 15:22:24;;;;;;;40.78;18.02;;;;;;;;;;4998266;28;20223;-76
2022/01/12 15:24:51;;;;;;;39.42;19.67;;;;;;;;;;5015538;28;20200;-76
2022/01/12 15:27:18;;;;;;;48.17;19.00;;;;;;;;;;5011815;28;20211;-75
2022/01/12 15:29:46;;;;;;;40.53;19.33;;;;;;;;;;5011542;28;20235;-75
2022/01/12 15:32:14;;;;;;;38.75;17.10;;;;;;;;;;5028237;28;20266;-76
2022/01/12 15:34:43;;;;;;;40.45;18.20;;;;;;;;;;5013327;28;20207;-76
2022/01/12 15:37:11;;;;;;;38.22;19.65;;;;;;;;;;5013594;28;20681;-77
2022/01/12 15:39:39;;;;;;;46.58;19.85;;;;;;;;;;5013355;28;20208;-75